Time;durP1;ratioP1;P1;durP2;ratioP2;P2;SDS_P1;SDS_P2;PMS_P1;PMS_P2;Temp;Humidity;BMP_temperature;BMP_pressure;BME280_temperature;BME280_humidity;BME280_pressure;Samples;Min_cycle;Max_cycle;Signal;HPM_P1;HPM_P2
2023/05/16 00:00:06;;;;;;;18.65;2.05;;;9.20;99.90;;;;;;5055365;28;20101;-83
2023/05/16 00:02:31;;;;;;;22.50;3.60;;;9.20;99.90;;;;;;5050478;28;20041;-82
2023/05/16 00:04:57;;;;;;;17.77;2.97;;;9.20;99.90;;;;;;5056827;28;20120;-82
2023/05/16 00:07:22;;;;;;;16.35;2.65;;;9.50;99.90;;;;;;5047771;28;20526;-83
2023/05/16 00:09:48;;;;;;;13.73;2.50;;;9.20;99.90;;;;;;5054590;28;20125;-83
2023/05/16 00:12:14;;;;;;;16.88;2.97;;;9.10;99.90;;;;;;5053974;28;20134;-83
2023/05/16 00:14:39;;;;;;;17.10;2.55;;;9.10;99.90;;;;;;5048156;28;20061;-84
2023/05/16 00:17:10;;;;;;;17.38;2.47;;;9.10;99.90;;;;;;5055116;28;20043;-83
2023/05/16 00:19:38;;;;;;;17.40;3.30;;;9.00;99.90;;;;;;5042265;28;20041;-82
2023/05/16 00:22:04;;;;;;;10.77;2.40;;;9.10;99.90;;;;;;5051250;28;20114;-83
2023/05/16 00:24:30;;;;;;;14.57;2.33;;;9.00;99.90;;;;;;5048356;28;20036;-83
2023/05/16 00:26:55;;;;;;;14.65;2.45;;;9.00;99.90;;;;;;5044339;28;20051;-82
2023/05/16 00:29:23;;;;;;;18.05;1.77;;;9.00;99.90;;;;;;5047444;28;20060;-83
2023/05/16 00:31:49;;;;;;;15.20;2.28;;;9.00;99.90;;;;;;5047764;28;20071;-83
2023/05/16 00:34:14;;;;;;;18.48;1.95;;;9.00;99.90;;;;;;5045049;28;20511;-83
2023/05/16 00:36:40;;;;;;;12.85;3.20;;;8.90;99.90;;;;;;5045381;28;20076;-82
2023/05/16 00:39:05;;;;;;;13.93;2.22;;;8.90;99.90;;;;;;5052914;28;20033;-82
2023/05/16 00:41:32;;;;;;;22.58;2.70;;;8.90;99.90;;;;;;5043493;28;20041;-83
2023/05/16 00:43:58;;;;;;;17.92;3.03;;;8.80;99.90;;;;;;5047619;28;20041;-83
2023/05/16 00:46:23;;;;;;;14.98;3.00;;;8.80;99.90;;;;;;5046022;28;20055;-83
2023/05/16 00:48:49;;;;;;;13.13;1.67;;;8.80;99.90;;;;;;5051380;28;20040;-83
2023/05/16 00:51:16;;;;;;;12.20;1.63;;;8.80;99.90;;;;;;5048680;28;20036;-83
2023/05/16 00:53:42;;;;;;;9.82;1.80;;;8.70;99.90;;;;;;5044738;28;20044;-83
2023/05/16 00:56:08;;;;;;;14.30;1.90;;;8.70;99.90;;;;;;5042485;28;20037;-83
2023/05/16 00:58:34;;;;;;;14.05;1.90;;;8.60;99.90;;;;;;5052309;28;20136;-84
2023/05/16 01:01:02;;;;;;;11.38;2.40;;;8.70;99.90;;;;;;5046835;28;20391;-83
2023/05/16 01:03:28;;;;;;;11.15;2.40;;;8.50;99.90;;;;;;5042147;28;20686;-83
2023/05/16 01:05:54;;;;;;;8.40;1.42;;;8.60;99.90;;;;;;5044310;28;20048;-83
2023/05/16 01:08:20;;;;;;;9.65;1.92;;;8.60;99.90;;;;;;5047282;28;20049;-83
2023/05/16 01:10:55;;;;;;;13.82;2.70;;;8.50;99.90;;;;;;5046723;28;20037;-83
2023/05/16 01:13:36;;;;;;;11.97;1.93;;;8.60;99.90;;;;;;5045255;28;20033;-83
2023/05/16 01:16:13;;;;;;;14.98;1.90;;;8.50;99.90;;;;;;5045551;28;20291;-83
2023/05/16 01:18:57;;;;;;;9.70;1.90;;;8.50;99.90;;;;;;5056328;28;20041;-83
2023/05/16 01:21:43;;;;;;;15.70;1.75;;;8.40;99.90;;;;;;5045393;28;20473;-83
2023/05/16 01:24:18;;;;;;;10.40;1.67;;;8.40;99.90;;;;;;5043324;28;20373;-82
2023/05/16 01:26:45;;;;;;;14.17;1.87;;;8.40;99.90;;;;;;5046663;28;20098;-83
2023/05/16 01:29:11;;;;;;;14.10;1.85;;;8.30;99.90;;;;;;5043880;28;20041;-83
2023/05/16 01:31:36;;;;;;;11.18;1.77;;;8.30;99.90;;;;;;5045146;28;20798;-83
2023/05/16 01:34:02;;;;;;;14.60;1.65;;;8.20;99.90;;;;;;5046052;28;20041;-83
2023/05/16 01:36:41;;;;;;;11.32;1.60;;;8.20;99.90;;;;;;5047075;28;20151;-83
2023/05/16 01:39:10;;;;;;;11.82;1.75;;;8.20;99.90;;;;;;5047112;28;20076;-83
2023/05/16 01:41:59;;;;;;;12.20;1.98;;;8.20;99.90;;;;;;5046803;28;20040;-82
2023/05/16 01:44:52;;;;;;;13.48;1.92;;;8.20;99.90;;;;;;5041125;28;20092;-83
2023/05/16 01:47:20;;;;;;;13.13;2.92;;;8.20;99.90;;;;;;5045769;28;20107;-83
2023/05/16 01:50:08;;;;;;;16.67;2.75;;;8.20;99.90;;;;;;5045864;28;20510;-83
2023/05/16 01:52:44;;;;;;;11.45;1.30;;;8.20;99.90;;;;;;5042972;28;20045;-83
2023/05/16 01:55:14;;;;;;;11.90;2.08;;;8.20;99.90;;;;;;5045082;28;20067;-83
2023/05/16 01:57:42;;;;;;;10.40;1.42;;;8.20;99.90;;;;;;5039903;28;20040;-83
2023/05/16 02:00:08;;;;;;;14.63;1.95;;;8.10;99.90;;;;;;5046793;28;20098;-83
2023/05/16 02:02:33;;;;;;;11.48;1.77;;;8.10;99.90;;;;;;5045610;28;20343;-83
2023/05/16 02:04:59;;;;;;;10.60;1.30;;;8.10;99.90;;;;;;5040847;28;20491;-83
2023/05/16 02:07:25;;;;;;;14.30;1.50;;;8.10;99.90;;;;;;5044961;28;20039;-83
2023/05/16 02:09:51;;;;;;;11.18;1.98;;;8.00;99.90;;;;;;5044489;28;20676;-83
2023/05/16 02:12:17;;;;;;;18.10;2.40;;;8.00;99.90;;;;;;5041919;28;20045;-83
2023/05/16 02:14:42;;;;;;;19.50;2.28;;;7.90;99.90;;;;;;5048993;28;20388;-83
2023/05/16 02:17:08;;;;;;;15.95;2.55;;;7.90;99.90;;;;;;5045916;28;20127;-83
2023/05/16 02:19:33;;;;;;;13.35;2.35;;;7.90;99.90;;;;;;5044701;28;20052;-83
2023/05/16 02:21:59;;;;;;;14.95;1.58;;;7.90;99.90;;;;;;5045129;28;20049;-83
2023/05/16 02:24:25;;;;;;;12.63;1.02;;;7.90;99.90;;;;;;5023189;28;20030;-83
2023/05/16 02:26:50;;;;;;;10.30;1.33;;;7.80;99.90;;;;;;5041963;28;20507;-83
2023/05/16 02:29:16;;;;;;;11.88;1.42;;;7.90;99.90;;;;;;5028819;28;20132;-83
2023/05/16 02:31:41;;;;;;;12.25;2.15;;;7.90;99.90;;;;;;5044801;28;20049;-83
2023/05/16 02:34:07;;;;;;;9.73;1.38;;;7.90;99.90;;;;;;5048300;28;20045;-83
2023/05/16 02:36:34;;;;;;;17.33;1.65;;;7.80;99.90;;;;;;5049616;28;20475;-83
2023/05/16 02:39:00;;;;;;;14.95;2.33;;;7.80;99.90;;;;;;5052268;28;20052;-83
2023/05/16 02:41:26;;;;;;;12.27;2.33;;;7.80;99.90;;;;;;5050528;28;20076;-83
2023/05/16 02:43:52;;;;;;;9.05;1.67;;;7.80;99.90;;;;;;5052480;28;20099;-83
2023/05/16 02:46:31;;;;;;;11.07;1.90;;;7.70;99.90;;;;;;5055246;28;20041;-83
2023/05/16 02:48:57;;;;;;;10.73;1.40;;;7.70;99.90;;;;;;5051068;28;20045;-83
2023/05/16 02:51:24;;;;;;;14.02;1.45;;;7.70;99.90;;;;;;5052877;28;21811;-83
2023/05/16 02:53:51;;;;;;;13.07;1.65;;;7.70;99.90;;;;;;5053809;28;20042;-83
2023/05/16 02:56:17;;;;;;;12.65;1.63;;;7.60;99.90;;;;;;5048904;28;20052;-83
2023/05/16 02:58:47;;;;;;;9.48;1.80;;;7.60;99.90;;;;;;5046481;28;20047;-83
2023/05/16 03:01:12;;;;;;;18.75;2.20;;;7.60;99.90;;;;;;5049506;28;20446;-83
2023/05/16 03:03:38;;;;;;;7.88;2.03;;;7.60;99.90;;;;;;5042992;28;20041;-83
2023/05/16 03:06:04;;;;;;;15.63;2.63;;;7.60;99.90;;;;;;5047751;28;20041;-83
2023/05/16 03:08:30;;;;;;;10.77;2.45;;;7.50;99.90;;;;;;5051860;28;20394;-83
2023/05/16 03:10:58;;;;;;;12.43;2.33;;;7.50;99.90;;;;;;5049526;28;20040;-83
2023/05/16 03:13:24;;;;;;;15.88;2.45;;;7.70;99.90;;;;;;5050756;28;20095;-83
2023/05/16 03:15:50;;;;;;;10.77;1.83;;;7.50;99.90;;;;;;5045337;28;20040;-83
2023/05/16 03:18:16;;;;;;;10.68;2.05;;;7.40;99.90;;;;;;5052788;28;20797;-83
2023/05/16 03:20:42;;;;;;;18.00;2.03;;;7.30;99.90;;;;;;5045906;28;20075;-83
2023/05/16 03:23:07;;;;;;;11.45;2.42;;;7.40;99.90;;;;;;5049896;28;20499;-83
2023/05/16 03:25:36;;;;;;;8.50;2.45;;;7.30;99.90;;;;;;5051010;28;20112;-83
2023/05/16 03:28:09;;;;;;;14.55;2.15;;;7.40;99.90;;;;;;5047309;28;20044;-83
2023/05/16 03:30:35;;;;;;;10.35;1.65;;;7.30;99.90;;;;;;5047602;28;20034;-83
2023/05/16 03:33:00;;;;;;;14.48;1.65;;;7.40;99.90;;;;;;5047043;28;20051;-83
2023/05/16 03:35:27;;;;;;;11.70;1.67;;;7.30;99.90;;;;;;5047753;28;20098;-83
2023/05/16 03:37:53;;;;;;;8.85;1.83;;;7.30;99.90;;;;;;5031106;28;20434;-83
2023/05/16 03:40:19;;;;;;;12.82;1.33;;;7.30;99.90;;;;;;5049201;28;20041;-83
2023/05/16 03:42:44;;;;;;;14.40;2.22;;;7.30;99.90;;;;;;5050359;28;20071;-83
2023/05/16 03:45:11;;;;;;;14.18;1.95;;;7.30;99.90;;;;;;5050950;28;20032;-83
2023/05/16 03:47:37;;;;;;;11.73;1.33;;;7.30;99.90;;;;;;5043281;28;20041;-83
2023/05/16 03:50:04;;;;;;;17.33;2.13;;;7.30;99.90;;;;;;5048577;28;20080;-83
2023/05/16 03:52:30;;;;;;;14.35;1.35;;;7.30;99.90;;;;;;5046202;28;20029;-83
2023/05/16 03:54:56;;;;;;;13.68;2.08;;;7.30;99.90;;;;;;5045592;28;20565;-83
2023/05/16 03:57:21;;;;;;;12.32;2.28;;;7.40;99.90;;;;;;5041783;28;20045;-83
2023/05/16 03:59:47;;;;;;;12.68;1.88;;;7.40;99.90;;;;;;5051586;28;20028;-83
2023/05/16 04:02:12;;;;;;;13.18;1.88;;;7.40;99.90;;;;;;5047556;28;20579;-83
2023/05/16 04:04:38;;;;;;;9.90;1.27;;;7.40;99.90;;;;;;5047900;28;20041;-83
2023/05/16 04:07:05;;;;;;;10.02;1.70;;;7.50;99.90;;;;;;5049947;28;20128;-83
2023/05/16 04:09:31;;;;;;;13.45;1.80;;;7.50;99.90;;;;;;5051491;28;20040;-83
2023/05/16 04:11:57;;;;;;;11.63;1.88;;;7.50;99.90;;;;;;5053592;28;20045;-83
2023/05/16 04:14:23;;;;;;;14.10;2.13;;;7.50;99.90;;;;;;5046373;28;20055;-83
2023/05/16 04:16:49;;;;;;;13.93;2.45;;;7.50;99.90;;;;;;5052332;28;20025;-83
2023/05/16 04:19:15;;;;;;;13.10;1.90;;;7.50;99.90;;;;;;5044525;28;20170;-83
2023/05/16 04:21:40;;;;;;;8.38;1.58;;;7.50;99.90;;;;;;5045405;28;20084;-83
2023/05/16 04:24:06;;;;;;;14.18;1.63;;;7.50;99.90;;;;;;5043053;28;20037;-83
2023/05/16 04:27:13;;;;;;;14.32;1.95;;;7.60;99.90;;;;;;5048725;28;20029;-83
2023/05/16 04:29:38;;;;;;;12.30;1.83;;;8.20;99.90;;;;;;5044071;28;20086;-81
2023/05/16 04:32:06;;;;;;;14.63;1.35;;;8.20;99.90;;;;;;5050821;28;20046;-82
2023/05/16 04:34:32;;;;;;;15.38;2.90;;;8.30;99.90;;;;;;5047959;28;20037;-83
2023/05/16 04:36:58;;;;;;;8.38;1.13;;;8.50;99.90;;;;;;5047797;28;20416;-82
2023/05/16 04:39:24;;;;;;;10.80;1.00;;;8.90;99.90;;;;;;5050970;28;20051;-83
2023/05/16 04:41:50;;;;;;;11.55;1.48;;;9.30;99.90;;;;;;5045704;28;20056;-82
2023/05/16 04:44:16;;;;;;;5.72;1.17;;;9.60;99.90;;;;;;5057945;28;20040;-81
2023/05/16 04:46:41;;;;;;;10.63;1.33;;;9.80;99.90;;;;;;5045511;28;20041;-81
2023/05/16 04:49:07;;;;;;;9.95;1.15;;;10.00;99.90;;;;;;5050923;28;20060;-82
2023/05/16 04:51:33;;;;;;;12.52;2.17;;;10.20;99.90;;;;;;5053135;28;20045;-82
2023/05/16 04:53:59;;;;;;;8.07;1.50;;;10.60;99.90;;;;;;5049320;28;20488;-81
2023/05/16 04:56:25;;;;;;;9.38;1.33;;;11.00;99.90;;;;;;5041149;28;20041;-81
2023/05/16 04:58:51;;;;;;;10.02;1.77;;;11.30;99.90;;;;;;5046679;28;20041;-82
2023/05/16 05:01:17;;;;;;;5.18;0.90;;;11.30;99.90;;;;;;5047896;28;20115;-82
2023/05/16 05:03:43;;;;;;;11.27;1.55;;;11.30;99.90;;;;;;5048145;28;20033;-82
2023/05/16 05:06:08;;;;;;;9.25;1.35;;;11.40;99.90;;;;;;5047213;28;20483;-83
2023/05/16 05:08:34;;;;;;;10.15;1.48;;;11.50;99.90;;;;;;5046219;28;20063;-83
2023/05/16 05:11:00;;;;;;;8.18;1.63;;;12.10;99.90;;;;;;5050404;28;20052;-83
2023/05/16 05:13:25;;;;;;;9.48;1.80;;;13.00;99.90;;;;;;5063439;28;20045;-84
2023/05/16 05:15:51;;;;;;;11.10;1.27;;;14.10;99.90;;;;;;5053747;28;20044;-83
2023/05/16 05:18:17;;;;;;;10.10;1.92;;;15.20;99.90;;;;;;5058713;28;20055;-83
2023/05/16 05:20:43;;;;;;;8.25;1.77;;;16.60;99.90;;;;;;5050264;28;20049;-83
2023/05/16 05:23:08;;;;;;;9.85;1.65;;;17.40;99.90;;;;;;5052660;28;20094;-84
2023/05/16 05:25:35;;;;;;;6.97;1.45;;;17.60;99.90;;;;;;5050568;28;20064;-84
2023/05/16 05:28:01;;;;;;;5.63;1.20;;;17.20;99.90;;;;;;5057490;28;20055;-83
2023/05/16 05:30:27;;;;;;;7.97;1.80;;;16.70;99.90;;;;;;5049777;28;20045;-83
2023/05/16 05:32:53;;;;;;;9.55;1.27;;;17.10;99.90;;;;;;5055018;28;20033;-84
2023/05/16 05:35:19;;;;;;;11.50;2.17;;;18.00;99.90;;;;;;5046377;28;20037;-83
2023/05/16 05:37:45;;;;;;;8.15;1.33;;;19.00;99.90;;;;;;5045164;28;20051;-85
2023/05/16 05:40:11;;;;;;;5.68;1.20;;;20.10;99.90;;;;;;5041653;28;20040;-85
2023/05/16 05:42:36;;;;;;;9.68;1.60;;;21.00;99.90;;;;;;5046595;28;20102;-84
2023/05/16 05:45:02;;;;;;;5.80;1.23;;;22.00;99.90;;;;;;5029917;28;20045;-82
2023/05/16 05:47:28;;;;;;;5.80;1.30;;;22.70;99.40;;;;;;5048732;28;20488;-84
2023/05/16 05:49:54;;;;;;;7.47;1.25;;;23.60;98.50;;;;;;5047786;28;20029;-85
2023/05/16 05:52:19;;;;;;;13.00;1.50;;;23.60;97.00;;;;;;5042542;28;20047;-85
2023/05/16 05:54:46;;;;;;;8.95;2.05;;;22.90;97.10;;;;;;5049460;28;20040;-83
2023/05/16 05:57:11;;;;;;;5.55;1.15;;;22.00;97.10;;;;;;5043852;28;20052;-85
2023/05/16 05:59:37;;;;;;;7.15;1.60;;;21.20;96.60;;;;;;5046929;28;20120;-84
2023/05/16 06:02:03;;;;;;;7.13;1.25;;;20.60;97.30;;;;;;5049713;28;20073;-85
2023/05/16 06:04:28;;;;;;;9.15;1.40;;;20.10;97.80;;;;;;5033738;28;20029;-85
2023/05/16 06:06:57;;;;;;;7.82;1.65;;;19.80;98.20;;;;;;5051894;28;20040;-85
2023/05/16 06:09:22;;;;;;;10.30;1.65;;;20.00;98.60;;;;;;5045268;28;20037;-84
2023/05/16 06:11:49;;;;;;;6.88;1.42;;;19.50;98.70;;;;;;5049457;28;20041;-84
2023/05/16 06:14:15;;;;;;;9.30;1.40;;;19.50;98.90;;;;;;5060385;28;20106;-84
2023/05/16 06:16:40;;;;;;;7.25;1.45;;;19.30;98.60;;;;;;5057626;28;20045;-84
2023/05/16 06:19:06;;;;;;;8.75;1.55;;;19.00;99.00;;;;;;5052286;28;20426;-84
2023/05/16 06:21:32;;;;;;;11.52;1.60;;;18.90;98.70;;;;;;5049314;28;20086;-84
2023/05/16 06:23:58;;;;;;;7.20;1.98;;;18.90;99.20;;;;;;5051419;28;20781;-84
2023/05/16 06:26:24;;;;;;;5.93;1.05;;;18.80;99.50;;;;;;5049126;28;20790;-85
2023/05/16 06:28:49;;;;;;;6.82;1.38;;;18.70;99.20;;;;;;5030708;28;20128;-84
2023/05/16 06:31:15;;;;;;;6.30;1.35;;;18.70;99.10;;;;;;5035229;28;20483;-84
2023/05/16 06:33:40;;;;;;;4.80;1.15;;;18.70;99.10;;;;;;5048523;28;20403;-85
2023/05/16 06:36:06;;;;;;;5.68;1.10;;;19.10;99.60;;;;;;5055904;28;20040;-84
2023/05/16 06:38:32;;;;;;;7.57;0.90;;;18.60;99.10;;;;;;5054515;28;20044;-85
2023/05/16 06:40:58;;;;;;;4.68;1.08;;;18.70;99.50;;;;;;5051665;28;20044;-84
2023/05/16 06:43:23;;;;;;;10.27;1.08;;;18.80;99.30;;;;;;5050410;28;20041;-84
2023/05/16 06:45:49;;;;;;;6.13;0.70;;;18.60;98.60;;;;;;5046491;28;20037;-84
2023/05/16 06:48:17;;;;;;;5.90;0.40;;;18.10;98.10;;;;;;5048259;28;20063;-84
2023/05/16 06:50:47;;;;;;;1.30;0.28;;;17.30;98.20;;;;;;5048130;28;20086;-84
2023/05/16 06:53:13;;;;;;;4.68;0.45;;;16.70;98.50;;;;;;5045096;28;20033;-84
2023/05/16 06:55:39;;;;;;;2.60;0.32;;;16.10;99.30;;;;;;5050849;28;20376;-83
2023/05/16 06:58:04;;;;;;;3.33;0.68;;;15.50;99.60;;;;;;5050618;28;20055;-83
2023/05/16 07:00:30;;;;;;;2.63;0.35;;;15.10;99.90;;;;;;5045418;28;20131;-84
2023/05/16 07:02:55;;;;;;;1.33;0.40;;;14.80;99.90;;;;;;5046160;28;20175;-84
2023/05/16 07:05:21;;;;;;;1.55;0.30;;;14.90;99.90;;;;;;5043781;28;20258;-85
2023/05/16 07:08:02;;;;;;;2.22;0.28;;;15.10;99.90;;;;;;5043813;28;20059;-84
2023/05/16 07:10:33;;;;;;;4.50;0.50;;;15.70;99.90;;;;;;5029877;28;20433;-84
2023/05/16 07:13:00;;;;;;;4.50;0.63;;;15.90;99.90;;;;;;5040004;28;20037;-84
2023/05/16 07:15:26;;;;;;;5.60;0.60;;;16.50;99.90;;;;;;5030166;28;20383;-85
2023/05/16 07:17:51;;;;;;;3.88;0.95;;;16.60;99.90;;;;;;5046162;28;20041;-85
2023/05/16 07:20:17;;;;;;;6.10;1.10;;;17.20;99.90;;;;;;5035710;28;20044;-85
2023/05/16 07:22:42;;;;;;;5.80;1.15;;;17.10;99.90;;;;;;5041729;28;20100;-84
2023/05/16 07:25:11;;;;;;;6.43;1.00;;;17.00;99.90;;;;;;5043426;28;20034;-85
2023/05/16 07:27:40;;;;;;;4.40;0.70;;;17.40;99.90;;;;;;5042305;28;20053;-85
2023/05/16 07:30:08;;;;;;;6.00;0.95;;;17.60;99.90;;;;;;5057541;28;20037;-85
2023/05/16 07:32:33;;;;;;;7.78;0.88;;;17.80;99.90;;;;;;5045759;28;20053;-85
2023/05/16 07:35:00;;;;;;;8.05;0.82;;;17.80;99.90;;;;;;5044365;28;20033;-84
2023/05/16 07:37:25;;;;;;;6.15;0.98;;;18.00;99.90;;;;;;5044864;28;20037;-86
2023/05/16 07:39:51;;;;;;;5.90;1.05;;;17.80;99.90;;;;;;5025403;28;20530;-86
2023/05/16 07:42:17;;;;;;;6.20;1.20;;;17.60;99.90;;;;;;5042223;28;20068;-85
2023/05/16 07:44:42;;;;;;;5.15;0.85;;;17.40;99.90;;;;;;5046825;28;20039;-85
2023/05/16 07:47:08;;;;;;;9.10;1.00;;;17.10;99.40;;;;;;5024469;28;20036;-85
2023/05/16 07:49:33;;;;;;;6.55;1.00;;;17.00;99.60;;;;;;5044167;28;20041;-86
2023/05/16 07:51:59;;;;;;;7.38;0.77;;;17.50;99.90;;;;;;5048647;28;20037;-85
2023/05/16 07:54:25;;;;;;;6.40;1.02;;;17.20;99.30;;;;;;5026107;28;20083;-86
2023/05/16 07:56:50;;;;;;;3.85;0.60;;;17.00;99.40;;;;;;5044484;28;20049;-85
2023/05/16 07:59:16;;;;;;;5.47;1.35;;;16.50;99.00;;;;;;5041530;28;20037;-86
2023/05/16 08:01:42;;;;;;;4.43;0.80;;;16.40;99.50;;;;;;5045726;28;20551;-84
2023/05/16 08:04:07;;;;;;;8.02;0.85;;;16.30;99.90;;;;;;5042607;28;20044;-85
2023/05/16 08:06:33;;;;;;;3.72;0.45;;;16.20;99.90;;;;;;5040064;28;20514;-84
2023/05/16 08:08:59;;;;;;;7.13;1.30;;;16.30;99.90;;;;;;5037765;28;20167;-85
2023/05/16 08:11:25;;;;;;;7.28;1.25;;;15.50;99.90;;;;;;5042433;28;22229;-85
2023/05/16 08:13:50;;;;;;;6.22;0.93;;;15.20;99.90;;;;;;5042855;28;20041;-85
2023/05/16 08:16:16;;;;;;;6.95;1.40;;;15.20;99.90;;;;;;5043292;28;20090;-85
2023/05/16 08:18:41;;;;;;;6.85;1.30;;;15.30;99.90;;;;;;5039506;28;20052;-83
2023/05/16 08:21:10;;;;;;;4.50;0.68;;;15.70;99.90;;;;;;5041788;28;20051;-83
2023/05/16 08:23:36;;;;;;;5.55;0.88;;;16.00;99.90;;;;;;5043535;28;20036;-84
2023/05/16 08:26:02;;;;;;;7.47;1.10;;;16.00;99.90;;;;;;5024763;28;20535;-85
2023/05/16 08:28:28;;;;;;;9.70;1.38;;;15.60;99.90;;;;;;5024777;28;20029;-85
2023/05/16 08:30:54;;;;;;;4.32;0.95;;;15.40;99.90;;;;;;5020819;28;20037;-85
2023/05/16 08:33:19;;;;;;;8.02;1.40;;;16.20;99.90;;;;;;5054137;28;20056;-84
2023/05/16 08:35:45;;;;;;;8.75;1.38;;;16.20;99.90;;;;;;5040524;28;20041;-85
2023/05/16 08:38:11;;;;;;;8.52;1.10;;;16.50;99.90;;;;;;5027852;28;20098;-85
2023/05/16 08:40:36;;;;;;;7.85;1.45;;;16.60;99.90;;;;;;5047509;28;20206;-85
2023/05/16 08:43:03;;;;;;;6.10;1.15;;;16.60;99.90;;;;;;5045724;28;20037;-85
2023/05/16 08:45:29;;;;;;;5.78;1.63;;;16.30;99.90;;;;;;5042777;28;20072;-84
2023/05/16 08:47:56;;;;;;;5.45;1.10;;;15.80;99.90;;;;;;5027092;28;20431;-85
2023/05/16 08:50:23;;;;;;;6.10;1.10;;;16.00;99.90;;;;;;5026765;28;20033;-85
2023/05/16 08:52:51;;;;;;;5.32;0.90;;;16.30;99.90;;;;;;5038701;28;20053;-84
2023/05/16 08:55:20;;;;;;;5.63;1.05;;;16.20;99.90;;;;;;5048662;28;20045;-85
2023/05/16 08:57:49;;;;;;;11.05;0.90;;;16.60;99.90;;;;;;5045690;28;20045;-85
2023/05/16 09:00:16;;;;;;;4.20;0.90;;;16.50;99.90;;;;;;5048702;28;20047;-87
2023/05/16 09:02:43;;;;;;;8.15;0.75;;;16.40;99.90;;;;;;5025550;28;20107;-85
2023/05/16 09:05:12;;;;;;;5.60;1.10;;;16.20;99.90;;;;;;5027559;28;20120;-85
2023/05/16 09:07:40;;;;;;;7.35;0.80;;;15.70;99.90;;;;;;5025795;28;20045;-86
2023/05/16 09:10:07;;;;;;;3.78;0.55;;;15.30;99.90;;;;;;5047871;28;20051;-85
2023/05/16 09:12:33;;;;;;;6.00;0.70;;;15.40;99.90;;;;;;5028828;28;20048;-85
2023/05/16 09:15:05;;;;;;;5.10;1.00;;;15.70;99.90;;;;;;5025583;28;20037;-85
2023/05/16 09:17:37;;;;;;;12.48;1.92;;;16.00;99.90;;;;;;5041880;28;20045;-86
2023/05/16 09:20:14;;;;;;;7.45;1.27;;;16.30;99.90;;;;;;5042985;28;20384;-85
2023/05/16 09:22:56;;;;;;;6.50;0.82;;;16.60;99.90;;;;;;5028173;28;20045;-86
2023/05/16 09:25:23;;;;;;;6.97;1.30;;;17.00;99.90;;;;;;5052629;28;20037;-85
2023/05/16 09:27:56;;;;;;;5.03;1.17;;;17.30;99.90;;;;;;5036787;28;20040;-84
2023/05/16 09:30:26;;;;;;;5.28;1.20;;;17.30;99.90;;;;;;5022822;28;20033;-85
2023/05/16 09:32:52;;;;;;;7.30;1.50;;;17.50;99.90;;;;;;5044679;28;20036;-86
2023/05/16 09:35:20;;;;;;;6.95;1.00;;;17.50;99.70;;;;;;5046462;28;20033;-86
2023/05/16 09:37:47;;;;;;;6.85;1.10;;;17.90;99.90;;;;;;5034727;28;20132;-86
2023/05/16 09:40:13;;;;;;;6.65;1.20;;;18.20;99.90;;;;;;5038306;28;20077;-86
2023/05/16 09:42:39;;;;;;;5.03;1.25;;;18.10;99.40;;;;;;5046376;28;20640;-86
2023/05/16 09:45:05;;;;;;;3.67;1.02;;;17.70;98.70;;;;;;5048255;28;20025;-85
2023/05/16 09:47:34;;;;;;;6.20;0.70;;;17.20;98.10;;;;;;5048892;28;20082;-86
2023/05/16 09:49:59;;;;;;;4.72;1.10;;;17.20;99.10;;;;;;5035383;28;20032;-86
2023/05/16 09:52:34;;;;;;;6.15;1.00;;;17.70;99.90;;;;;;5054387;28;20040;-86
2023/05/16 09:55:03;;;;;;;7.15;1.40;;;17.60;99.30;;;;;;5052223;28;20102;-86
2023/05/16 09:57:29;;;;;;;8.25;1.45;;;17.50;98.70;;;;;;5055203;28;20380;-86
2023/05/16 10:00:00;;;;;;;7.88;1.02;;;17.40;98.30;;;;;;5033288;28;20041;-85
2023/05/16 10:02:26;;;;;;;7.88;1.48;;;17.70;99.80;;;;;;5050046;28;20256;-86
2023/05/16 10:04:52;;;;;;;8.18;1.13;;;17.40;99.90;;;;;;5049978;28;20036;-85
2023/05/16 10:07:19;;;;;;;6.00;0.90;;;17.50;99.90;;;;;;5054360;28;20052;-86
2023/05/16 10:09:46;;;;;;;3.90;0.90;;;17.70;99.90;;;;;;5042839;28;20052;-85
2023/05/16 10:12:14;;;;;;;8.13;1.85;;;18.50;99.90;;;;;;5046823;28;20160;-86
2023/05/16 10:14:40;;;;;;;5.35;1.25;;;18.00;99.80;;;;;;5052929;28;20045;-86
2023/05/16 10:17:11;;;;;;;6.32;1.00;;;18.80;99.90;;;;;;5047217;28;20099;-86
2023/05/16 10:19:38;;;;;;;7.45;1.35;;;18.80;99.90;;;;;;5052231;28;20131;-85
2023/05/16 10:22:06;;;;;;;6.38;1.10;;;18.00;99.20;;;;;;5044398;28;20041;-86
2023/05/16 10:25:11;;;;;;;5.40;1.13;;;18.50;99.10;;;;;;5051659;28;20044;-86
2023/05/16 10:27:58;;;;;;;8.45;1.35;;;17.90;99.60;;;;;;5040827;28;20049;-86
2023/05/16 10:30:44;;;;;;;6.80;1.08;;;18.00;98.50;;;;;;5047725;28;20853;-85
2023/05/16 11:36:43;;;;;;;6.75;1.20;;;18.00;99.40;;;;;;5037096;28;20082;-87
2023/05/16 11:40:17;;;;;;;;;;;;;;;;;;;;;
2023/05/16 12:42:27;;;;;;;7.38;1.42;;;16.10;99.90;;;;;;5038467;28;20048;-84
2023/05/16 12:57:12;;;;;;;4.63;1.60;;;16.20;99.90;;;;;;4926448;29;20200;-85
2023/05/16 13:00:50;;;;;;;7.20;1.48;;;16.00;99.90;;;;;;4902498;29;20118;-85
2023/05/16 13:23:09;;;;;;;5.50;1.85;;;15.50;99.90;;;;;;4815405;29;20052;-86
2023/05/16 13:27:03;;;;;;;7.82;2.70;;;15.70;99.90;;;;;;4903854;29;20031;-85
2023/05/16 13:29:57;;;;;;;5.28;1.70;;;15.90;99.90;;;;;;4910755;29;20039;-86
2023/05/16 13:33:54;;;;;;;6.15;1.63;;;16.20;99.90;;;;;;4873279;29;20131;-86
2023/05/16 13:59:45;;;;;;;5.38;1.92;;;15.70;99.30;;;;;;4832126;29;20123;-86
2023/05/16 14:07:10;;;;;;;5.53;2.20;;;15.50;99.90;;;;;;4795454;29;20339;-86
2023/05/16 14:14:36;;;;;;;8.07;2.25;;;15.50;99.90;;;;;;4888187;29;20047;-86
2023/05/16 14:21:14;;;;;;;10.75;3.03;;;15.30;99.90;;;;;;4933810;28;20041;-85
2023/05/16 14:24:40;;;;;;;6.93;2.20;;;15.20;99.90;;;;;;4946525;28;20050;-86
2023/05/16 14:31:05;;;;;;;5.40;2.33;;;15.60;99.90;;;;;;4944081;28;20827;-85
2023/05/16 14:34:40;;;;;;;8.27;2.30;;;15.40;99.90;;;;;;4941697;28;20047;-85
2023/05/16 14:41:01;;;;;;;6.00;1.80;;;14.60;99.90;;;;;;4873960;29;20564;-85
2023/05/16 14:44:35;;;;;;;4.80;1.92;;;14.30;99.90;;;;;;4917077;29;20590;-85
2023/05/16 14:47:01;;;;;;;7.00;2.38;;;14.10;99.90;;;;;;4874920;29;20056;-85
2023/05/16 14:49:27;;;;;;;5.40;1.55;;;13.90;99.90;;;;;;4958155;28;20057;-85
2023/05/16 14:51:55;;;;;;;7.47;1.80;;;13.80;99.90;;;;;;4964274;28;20142;-85
2023/05/16 14:55:14;;;;;;;6.60;1.90;;;14.40;99.90;;;;;;4964100;28;20031;-85
2023/05/16 14:57:45;;;;;;;5.47;2.05;;;13.60;99.90;;;;;;4842023;29;20124;-85
2023/05/16 15:00:32;;;;;;;7.10;1.98;;;13.60;99.90;;;;;;4872414;29;20056;-85
2023/05/16 15:03:31;;;;;;;6.25;2.45;;;13.80;99.90;;;;;;4923337;29;20051;-84
2023/05/16 15:06:27;;;;;;;4.78;1.65;;;13.70;99.90;;;;;;4920530;28;20103;-85
2023/05/16 15:09:07;;;;;;;9.30;1.92;;;14.20;99.90;;;;;;4915726;28;20043;-85
2023/05/16 15:11:58;;;;;;;9.40;2.92;;;13.70;99.90;;;;;;4930265;29;20059;-84
2023/05/16 15:14:50;;;;;;;6.20;2.33;;;13.70;99.90;;;;;;4927425;28;20142;-85
2023/05/16 15:18:31;;;;;;;5.30;1.60;;;13.60;99.90;;;;;;4928363;28;20102;-86
2023/05/16 15:21:23;;;;;;;5.70;1.58;;;13.60;99.90;;;;;;4927526;29;20038;-85
2023/05/16 15:23:54;;;;;;;4.00;1.40;;;13.60;99.90;;;;;;4982882;28;20131;-86
2023/05/16 15:26:28;;;;;;;11.95;1.77;;;13.60;99.90;;;;;;5012713;28;20036;-84
2023/05/16 15:30:14;;;;;;;10.73;1.88;;;13.50;99.90;;;;;;5024433;28;20049;-85
2023/05/16 15:33:19;;;;;;;6.15;1.40;;;13.50;99.90;;;;;;4949134;28;20041;-85
2023/05/16 15:36:31;;;;;;;5.15;1.15;;;13.30;99.90;;;;;;5025551;28;20037;-84
2023/05/16 15:39:57;;;;;;;4.32;1.20;;;13.20;99.90;;;;;;5040368;28;20036;-85
2023/05/16 15:43:03;;;;;;;5.70;1.23;;;13.20;99.90;;;;;;5035329;28;20050;-85
2023/05/16 15:46:16;;;;;;;5.78;1.30;;;13.20;99.90;;;;;;5014959;28;20095;-85
2023/05/16 15:49:20;;;;;;;6.43;1.30;;;13.10;99.90;;;;;;5004425;28;20111;-84
2023/05/16 15:55:27;;;;;;;4.88;1.13;;;13.00;99.90;;;;;;4988924;28;20132;-85
2023/05/16 15:58:05;;;;;;;4.47;1.00;;;13.00;99.90;;;;;;4976168;28;20034;-85
2023/05/16 16:01:24;;;;;;;5.75;1.00;;;13.10;99.90;;;;;;4981133;28;21886;-85
2023/05/16 16:04:16;;;;;;;5.10;1.02;;;13.20;99.90;;;;;;4930506;29;20059;-85
2023/05/16 16:06:42;;;;;;;2.67;1.10;;;13.40;99.90;;;;;;4934379;28;20129;-84
2023/05/16 16:09:11;;;;;;;6.35;1.60;;;13.40;99.90;;;;;;4968221;28;20061;-85
2023/05/16 16:11:39;;;;;;;3.65;1.08;;;13.20;99.90;;;;;;4963380;28;20046;-86
2023/05/16 16:14:07;;;;;;;6.05;1.35;;;13.40;99.90;;;;;;4986000;28;20116;-84
2023/05/16 16:17:00;;;;;;;4.15;0.82;;;13.40;99.90;;;;;;4997088;28;20095;-85
2023/05/16 16:19:28;;;;;;;6.40;1.20;;;13.40;99.90;;;;;;4989550;28;20457;-84
2023/05/16 16:21:55;;;;;;;5.53;1.20;;;13.40;99.90;;;;;;4982676;28;20535;-85
2023/05/16 16:24:38;;;;;;;8.38;2.35;;;13.40;99.90;;;;;;4983784;28;20042;-86
2023/05/16 16:27:04;;;;;;;5.22;1.48;;;13.30;99.90;;;;;;5041265;28;20106;-85
2023/05/16 16:29:30;;;;;;;5.07;2.20;;;13.20;99.90;;;;;;5007000;28;20111;-85
2023/05/16 16:31:56;;;;;;;6.95;1.60;;;13.10;99.90;;;;;;5026674;28;20503;-85
2023/05/16 16:34:21;;;;;;;5.28;1.50;;;13.00;99.90;;;;;;5045973;28;20030;-84